createdAt,value
2023-05-25T00:01:02.739Z,9.32
2023-05-25T00:03:40.654Z,8.30
2023-05-25T00:06:12.370Z,7.47
2023-05-25T00:08:43.482Z,11.77
2023-05-25T00:11:14.941Z,9.30
2023-05-25T00:13:45.818Z,17.10
2023-05-25T00:16:16.716Z,8.55
2023-05-25T00:18:50.859Z,11.48
2023-05-25T00:21:21.703Z,11.57
2023-05-25T00:23:52.524Z,8.88
2023-05-25T00:26:23.367Z,11.57
2023-05-25T00:28:54.119Z,10.82
2023-05-25T00:31:24.963Z,13.02
2023-05-25T00:33:58.498Z,11.63
2023-05-25T00:36:30.043Z,8.23
2023-05-25T00:39:02.152Z,10.90
2023-05-25T00:41:35.226Z,11.88
2023-05-25T00:44:06.264Z,11.77
2023-05-25T00:46:37.912Z,12.48
2023-05-25T00:49:11.484Z,11.52
2023-05-25T00:51:46.883Z,12.30
2023-05-25T00:54:19.056Z,9.50
2023-05-25T00:56:54.187Z,15.73
2023-05-25T00:59:33.617Z,12.20
2023-05-25T01:02:08.108Z,7.13
2023-05-25T01:04:49.806Z,11.40
2023-05-25T01:07:25.650Z,10.93
2023-05-25T01:10:01.990Z,13.23
2023-05-25T01:12:35.388Z,13.05
2023-05-25T01:15:08.288Z,9.05
2023-05-25T01:17:40.769Z,15.00
2023-05-25T01:20:15.047Z,13.10
2023-05-25T01:22:54.754Z,8.00
2023-05-25T01:25:30.382Z,15.20
2023-05-25T01:28:06.348Z,10.02
2023-05-25T01:30:39.775Z,12.93
2023-05-25T01:33:12.035Z,10.57
2023-05-25T01:35:44.784Z,13.05
2023-05-25T01:38:18.731Z,13.10
2023-05-25T01:40:49.663Z,13.98
2023-05-25T01:43:20.724Z,11.80
2023-05-25T01:45:51.990Z,12.75
2023-05-25T01:48:29.404Z,15.80
2023-05-25T01:51:05.489Z,11.38
2023-05-25T01:53:44.832Z,11.23
2023-05-25T01:56:17.899Z,16.23
2023-05-25T01:58:51.580Z,14.63
2023-05-25T02:01:23.907Z,8.70
2023-05-25T02:03:56.038Z,12.82
2023-05-25T02:06:26.990Z,14.05
2023-05-25T02:09:00.492Z,13.13
2023-05-25T02:11:31.403Z,12.68
2023-05-25T02:14:02.395Z,11.07
2023-05-25T02:16:33.392Z,12.65
2023-05-25T02:19:04.633Z,12.55
2023-05-25T02:21:37.034Z,10.80
2023-05-25T02:24:11.512Z,13.75
2023-05-25T02:26:42.908Z,12.95
2023-05-25T02:29:13.833Z,10.13
2023-05-25T02:31:44.810Z,12.80
2023-05-25T02:34:16.873Z,11.13
2023-05-25T02:36:49.881Z,10.35
2023-05-25T02:39:23.392Z,8.98
2023-05-25T02:41:54.470Z,11.00
2023-05-25T02:44:25.822Z,10.45
2023-05-25T02:46:56.738Z,13.40
2023-05-25T02:49:27.902Z,12.82
2023-05-25T02:51:59.105Z,12.80
2023-05-25T02:54:32.604Z,11.55
2023-05-25T02:57:03.780Z,14.13
2023-05-25T02:59:35.325Z,9.93
2023-05-25T03:02:07.174Z,11.02
2023-05-25T03:04:39.304Z,13.57
2023-05-25T03:07:10.173Z,11.50
2023-05-25T03:09:44.570Z,14.23
2023-05-25T03:12:16.032Z,10.23
2023-05-25T03:14:47.014Z,12.43
2023-05-25T03:17:18.145Z,16.55
2023-05-25T03:19:49.099Z,13.55
2023-05-25T03:22:20.144Z,10.93
2023-05-25T03:24:53.971Z,12.82
2023-05-25T03:27:24.852Z,11.40
2023-05-25T03:29:56.099Z,13.13
2023-05-25T03:32:27.149Z,13.98
2023-05-25T03:34:58.189Z,12.25
2023-05-25T03:37:30.057Z,14.32
2023-05-25T03:40:04.996Z,9.70
2023-05-25T03:42:37.281Z,13.38
2023-05-25T03:45:09.829Z,15.23
2023-05-25T03:47:41.532Z,10.50
2023-05-25T03:50:13.340Z,13.18
2023-05-25T03:52:44.674Z,11.52
2023-05-25T03:55:18.300Z,11.30
2023-05-25T03:57:49.199Z,14.43
2023-05-25T04:00:20.435Z,11.90
2023-05-25T04:02:53.365Z,13.88
2023-05-25T04:05:25.113Z,9.82
2023-05-25T04:07:55.972Z,12.15
2023-05-25T04:10:29.485Z,12.18
2023-05-25T04:13:00.276Z,11.77
2023-05-25T04:15:31.215Z,11.55
2023-05-25T04:18:08.024Z,12.77
2023-05-25T04:20:39.455Z,11.68
2023-05-25T04:23:12.135Z,15.07
2023-05-25T04:25:47.667Z,10.55
2023-05-25T04:28:19.250Z,12.90
2023-05-25T04:30:57.427Z,13.57
2023-05-25T04:33:50.472Z,12.02
2023-05-25T04:36:28.572Z,10.38
2023-05-25T04:39:03.055Z,13.82
2023-05-25T04:41:38.062Z,13.98
2023-05-25T04:44:14.196Z,9.30
2023-05-25T04:46:54.054Z,11.38
2023-05-25T04:49:31.680Z,13.77
2023-05-25T04:52:02.783Z,18.20
2023-05-25T04:54:35.096Z,13.88
2023-05-25T04:57:09.511Z,12.75
2023-05-25T04:59:40.417Z,12.45
2023-05-25T05:02:11.356Z,14.77
2023-05-25T05:04:42.603Z,15.57
2023-05-25T05:07:13.290Z,16.50
2023-05-25T05:09:43.728Z,11.50
2023-05-25T05:12:18.657Z,11.88
2023-05-25T05:14:53.397Z,11.52
2023-05-25T05:17:25.095Z,11.98
2023-05-25T05:19:55.855Z,15.77
2023-05-25T05:22:27.485Z,16.58
2023-05-25T05:24:58.058Z,15.05
2023-05-25T05:27:31.137Z,15.50
2023-05-25T05:30:10.004Z,13.90
2023-05-25T05:32:40.947Z,15.10
2023-05-25T05:35:13.689Z,12.70
2023-05-25T05:37:48.010Z,12.38
2023-05-25T05:40:18.729Z,15.80
2023-05-25T05:42:53.470Z,14.77
2023-05-25T05:45:24.162Z,11.88
2023-05-25T05:47:54.622Z,17.83
2023-05-25T05:50:25.794Z,16.30
2023-05-25T05:52:56.432Z,11.55
2023-05-25T05:55:27.012Z,15.48
2023-05-25T05:58:00.200Z,13.43
2023-05-25T06:00:31.572Z,15.10
2023-05-25T06:03:02.488Z,15.00
2023-05-25T06:05:34.223Z,20.17
2023-05-25T06:08:06.202Z,17.83
2023-05-25T06:10:41.109Z,16.85
2023-05-25T06:13:14.504Z,17.45
2023-05-25T06:15:46.330Z,17.20
2023-05-25T06:18:22.112Z,15.73
2023-05-25T06:20:52.699Z,17.83
2023-05-25T06:23:23.139Z,15.95
2023-05-25T06:25:56.156Z,21.55
2023-05-25T06:28:29.110Z,16.77
2023-05-25T06:30:59.428Z,21.60
2023-05-25T06:33:29.891Z,21.38
2023-05-25T06:36:00.851Z,16.88
2023-05-25T06:38:32.478Z,19.67
2023-05-25T06:41:05.144Z,20.63
2023-05-25T06:43:39.225Z,22.70
2023-05-25T06:46:18.660Z,20.00
2023-05-25T06:48:50.330Z,18.08
2023-05-25T06:51:21.481Z,18.02
2023-05-25T06:53:52.069Z,26.08
2023-05-25T06:56:23.138Z,18.85
2023-05-25T06:58:56.449Z,19.13
2023-05-25T07:01:27.099Z,19.95
2023-05-25T07:03:57.660Z,18.83
2023-05-25T07:06:28.378Z,19.73
2023-05-25T07:08:59.260Z,15.52
2023-05-25T07:11:31.462Z,20.98
2023-05-25T07:14:04.690Z,24.13
2023-05-25T07:16:35.400Z,18.50
2023-05-25T07:19:06.008Z,20.48
2023-05-25T07:21:36.906Z,17.40
2023-05-25T07:24:08.000Z,23.08
2023-05-25T07:26:39.481Z,22.20
2023-05-25T07:29:12.824Z,22.00
2023-05-25T07:31:43.419Z,21.23
2023-05-25T07:34:13.955Z,20.17
2023-05-25T07:36:44.440Z,19.80
2023-05-25T07:39:15.085Z,18.67
2023-05-25T07:41:45.603Z,21.83
2023-05-25T07:44:18.913Z,19.00
2023-05-25T07:46:49.444Z,19.40
2023-05-25T07:49:20.014Z,25.67
2023-05-25T07:51:50.541Z,27.10
2023-05-25T07:54:21.363Z,21.67
2023-05-25T07:56:51.969Z,9.68
2023-05-25T07:59:25.234Z,19.15
2023-05-25T08:01:55.814Z,16.80
2023-05-25T08:04:26.529Z,18.55
2023-05-25T08:06:57.469Z,20.65
2023-05-25T08:09:28.012Z,22.50
2023-05-25T08:12:18.740Z,22.75
2023-05-25T08:14:52.064Z,21.20
2023-05-25T08:17:22.848Z,23.80
2023-05-25T08:19:53.751Z,19.05
2023-05-25T08:22:24.200Z,16.85
2023-05-25T08:24:54.800Z,25.08
2023-05-25T08:27:25.334Z,21.50
2023-05-25T08:29:58.620Z,19.55
2023-05-25T08:32:29.446Z,19.90
2023-05-25T08:34:59.987Z,16.85
2023-05-25T08:37:30.709Z,19.85
2023-05-25T08:40:02.821Z,20.05
2023-05-25T08:42:34.326Z,15.00
2023-05-25T08:45:12.482Z,19.50
2023-05-25T08:47:47.537Z,21.48
2023-05-25T08:50:19.943Z,18.15
2023-05-25T08:52:54.836Z,17.25
2023-05-25T08:55:27.954Z,18.20
2023-05-25T08:58:03.039Z,17.90
2023-05-25T09:00:39.588Z,19.20
2023-05-25T09:03:14.729Z,22.15
2023-05-25T09:05:45.934Z,19.58
2023-05-25T09:08:17.605Z,24.50
2023-05-25T09:10:48.695Z,25.42
2023-05-25T09:13:22.803Z,21.75
2023-05-25T09:15:59.412Z,18.67
2023-05-25T09:18:31.116Z,19.52
2023-05-25T09:21:02.307Z,17.38
2023-05-25T09:23:33.488Z,19.17
2023-05-25T09:26:04.896Z,15.48
2023-05-25T09:28:35.261Z,15.73
2023-05-25T09:31:08.795Z,13.68
2023-05-25T09:33:42.981Z,17.15
2023-05-25T09:36:16.988Z,15.75
2023-05-25T09:38:48.912Z,15.48
2023-05-25T09:41:19.795Z,15.52
2023-05-25T09:44:02.058Z,13.50
2023-05-25T09:46:45.078Z,13.95
2023-05-25T09:49:16.073Z,10.00
2023-05-25T09:51:46.860Z,13.95
2023-05-25T09:54:17.656Z,16.02
2023-05-25T09:56:49.092Z,14.07
2023-05-25T09:59:19.485Z,11.80
2023-05-25T10:01:54.826Z,11.02
2023-05-25T10:04:25.360Z,12.10
2023-05-25T10:06:57.165Z,15.32
2023-05-25T10:09:30.583Z,11.95
2023-05-25T10:12:02.512Z,11.65
2023-05-25T10:14:33.774Z,8.15
2023-05-25T10:17:08.966Z,9.82
2023-05-25T10:19:43.382Z,8.82
2023-05-25T10:22:19.073Z,7.68
2023-05-25T10:24:58.551Z,10.80
2023-05-25T10:27:37.217Z,9.60
2023-05-25T10:30:09.708Z,10.55
2023-05-25T10:32:43.866Z,11.10
2023-05-25T10:35:15.437Z,8.30
2023-05-25T10:37:46.877Z,10.13
2023-05-25T10:40:17.680Z,8.13
2023-05-25T10:42:49.224Z,10.35
2023-05-25T10:45:20.193Z,6.63
2023-05-25T10:47:53.999Z,11.95
2023-05-25T10:50:27.311Z,8.68
2023-05-25T10:53:05.837Z,8.15
2023-05-25T10:55:46.736Z,8.30
2023-05-25T10:58:19.633Z,12.00
2023-05-25T11:01:02.088Z,11.35
2023-05-25T11:03:57.673Z,7.03
2023-05-25T11:07:00.921Z,10.40
2023-05-25T11:09:33.160Z,9.60
2023-05-25T11:12:07.693Z,9.65
2023-05-25T11:14:42.519Z,8.18
2023-05-25T11:17:15.282Z,7.20
2023-05-25T11:19:51.949Z,8.18
2023-05-25T11:22:24.968Z,8.25
2023-05-25T11:24:57.119Z,8.82
2023-05-25T11:27:28.347Z,7.53
2023-05-25T11:29:59.518Z,8.40
2023-05-25T11:32:31.006Z,6.80
2023-05-25T11:35:04.212Z,9.43
2023-05-25T11:37:34.748Z,8.73
2023-05-25T11:40:11.973Z,14.60
2023-05-25T11:42:45.041Z,10.20
2023-05-25T11:45:17.914Z,8.45
2023-05-25T11:47:48.347Z,15.18
2023-05-25T11:50:21.683Z,9.48
2023-05-25T11:52:52.177Z,8.40
2023-05-25T11:55:22.582Z,7.15
2023-05-25T11:57:59.929Z,5.93
2023-05-25T12:00:31.752Z,8.50
2023-05-25T12:03:02.510Z,8.45
2023-05-25T12:05:43.359Z,8.50
2023-05-25T12:08:13.908Z,6.50
2023-05-25T12:10:53.958Z,8.98
2023-05-25T12:13:25.219Z,8.57
2023-05-25T12:15:55.842Z,8.45
2023-05-25T12:18:26.565Z,5.75
2023-05-25T12:20:59.984Z,5.97
2023-05-25T12:23:30.626Z,8.00
2023-05-25T12:26:12.801Z,7.28
2023-05-25T12:28:43.664Z,12.00
2023-05-25T12:31:28.050Z,7.15
2023-05-25T12:34:09.067Z,5.85
2023-05-25T12:36:43.049Z,8.23
2023-05-25T12:39:14.634Z,5.32
2023-05-25T12:41:56.058Z,10.50
2023-05-25T12:44:29.071Z,7.70
2023-05-25T12:47:00.499Z,7.47
2023-05-25T12:49:33.864Z,8.75
2023-05-25T12:52:08.177Z,4.93
2023-05-25T12:54:44.004Z,6.85
2023-05-25T12:57:15.989Z,5.35
2023-05-25T12:59:47.838Z,5.65
2023-05-25T13:02:18.369Z,8.80
2023-05-25T13:04:48.924Z,9.02
2023-05-25T13:07:22.933Z,8.38
2023-05-25T13:09:53.323Z,6.18
2023-05-25T13:12:23.777Z,5.93
2023-05-25T13:14:54.210Z,7.05
2023-05-25T13:17:27.492Z,8.82
2023-05-25T13:19:58.019Z,10.63
2023-05-25T13:22:30.981Z,7.32
2023-05-25T13:25:01.445Z,6.95
2023-05-25T13:27:32.019Z,6.10
2023-05-25T13:30:02.336Z,8.32
2023-05-25T13:32:33.508Z,8.02
2023-05-25T13:35:05.113Z,7.43
2023-05-25T13:37:38.117Z,4.88
2023-05-25T13:40:09.609Z,6.15
2023-05-25T13:42:39.953Z,7.75
2023-05-25T13:45:11.957Z,5.93
2023-05-25T13:47:43.900Z,5.03
2023-05-25T13:50:14.859Z,9.85
2023-05-25T13:52:49.294Z,7.30
2023-05-25T13:55:19.793Z,10.25
2023-05-25T13:57:50.199Z,5.43
2023-05-25T14:00:21.332Z,6.95
2023-05-25T14:02:52.032Z,8.80
2023-05-25T14:05:23.038Z,4.05
2023-05-25T14:07:56.908Z,6.43
2023-05-25T14:10:27.559Z,8.75
2023-05-25T14:12:57.963Z,7.10
2023-05-25T14:15:28.498Z,6.28
2023-05-25T14:17:58.899Z,6.53
2023-05-25T14:20:29.353Z,6.85
2023-05-25T14:23:02.420Z,6.25
2023-05-25T14:25:32.749Z,7.05
2023-05-25T14:28:03.156Z,7.45
2023-05-25T14:30:33.630Z,7.78
2023-05-25T14:33:03.966Z,8.50
2023-05-25T14:35:34.285Z,8.52
2023-05-25T14:38:07.259Z,7.00
2023-05-25T14:40:37.694Z,7.32
2023-05-25T14:43:08.027Z,6.00
2023-05-25T14:45:38.464Z,10.02
2023-05-25T14:48:16.475Z,8.05
2023-05-25T14:50:47.691Z,5.30
2023-05-25T14:53:20.841Z,5.72
2023-05-25T14:55:51.329Z,8.45
2023-05-25T14:58:21.675Z,7.13
2023-05-25T15:00:52.087Z,6.25
2023-05-25T15:03:22.538Z,6.68
2023-05-25T15:05:52.969Z,5.65
2023-05-25T15:08:26.125Z,8.25
2023-05-25T15:10:56.761Z,6.93
2023-05-25T15:13:27.198Z,9.77
2023-05-25T15:15:57.998Z,8.27
2023-05-25T15:18:28.541Z,7.18
2023-05-25T15:20:59.252Z,6.15
2023-05-25T15:23:32.313Z,6.70
2023-05-25T15:26:04.918Z,7.18
2023-05-25T15:28:35.503Z,6.00
2023-05-25T15:31:07.097Z,7.50
2023-05-25T15:33:53.883Z,6.65
2023-05-25T15:36:26.848Z,6.25
2023-05-25T15:38:59.998Z,5.20
2023-05-25T15:41:30.416Z,9.02
2023-05-25T15:44:01.611Z,5.40
2023-05-25T15:46:32.301Z,6.53
2023-05-25T15:49:02.960Z,8.65
2023-05-25T15:51:33.808Z,6.45
2023-05-25T15:54:06.932Z,6.47
2023-05-25T15:56:37.320Z,7.57
2023-05-25T15:59:08.423Z,7.57
2023-05-25T16:01:38.810Z,4.70
2023-05-25T16:04:09.273Z,6.75
2023-05-25T16:06:39.779Z,3.88
2023-05-25T16:09:12.976Z,10.45
2023-05-25T16:11:43.380Z,8.48
2023-05-25T16:14:13.803Z,5.88
2023-05-25T16:16:44.508Z,6.72
2023-05-25T16:19:15.495Z,6.43
2023-05-25T16:21:46.075Z,8.43
2023-05-25T16:24:19.054Z,6.97
2023-05-25T16:26:49.546Z,9.25
2023-05-25T16:29:20.067Z,5.45
2023-05-25T16:31:50.408Z,8.40
2023-05-25T16:34:20.853Z,6.50
2023-05-25T16:36:51.385Z,6.93
2023-05-25T16:39:24.449Z,7.85
2023-05-25T16:41:54.855Z,8.00
2023-05-25T16:44:25.220Z,7.85
2023-05-25T16:46:55.586Z,8.73
2023-05-25T16:49:25.905Z,7.15
2023-05-25T16:51:56.560Z,7.97
2023-05-25T16:54:29.571Z,6.63
2023-05-25T16:56:59.965Z,8.93
2023-05-25T16:59:30.589Z,10.98
2023-05-25T17:02:00.947Z,7.13
2023-05-25T17:04:31.331Z,8.13
2023-05-25T17:07:01.689Z,10.05
2023-05-25T17:09:34.654Z,10.20
2023-05-25T17:12:05.309Z,9.38
2023-05-25T17:14:35.986Z,8.57
2023-05-25T17:17:06.527Z,10.65
2023-05-25T17:19:38.394Z,6.32
2023-05-25T17:22:08.978Z,9.00
2023-05-25T17:24:41.993Z,11.13
2023-05-25T17:27:12.420Z,8.93
2023-05-25T17:29:42.803Z,11.18
2023-05-25T17:32:13.176Z,11.57
2023-05-25T17:34:43.625Z,10.30
2023-05-25T17:37:14.000Z,9.73
2023-05-25T17:39:46.991Z,12.45
2023-05-25T17:42:17.459Z,11.23
2023-05-25T17:44:47.911Z,12.35
2023-05-25T17:47:18.272Z,11.45
2023-05-25T17:49:48.788Z,11.57
2023-05-25T17:52:19.152Z,8.43
2023-05-25T17:54:52.174Z,12.27
2023-05-25T17:57:22.629Z,10.85
2023-05-25T17:59:52.965Z,10.30
2023-05-25T18:02:23.760Z,11.30
2023-05-25T18:04:54.457Z,13.23
2023-05-25T18:07:25.377Z,11.07
2023-05-25T18:09:58.373Z,8.98
2023-05-25T18:12:28.971Z,13.80
2023-05-25T18:14:59.412Z,15.05
2023-05-25T18:17:30.086Z,10.95
2023-05-25T18:20:00.617Z,10.95
2023-05-25T18:22:31.750Z,11.27
2023-05-25T18:25:04.800Z,13.63
2023-05-25T18:27:35.236Z,8.85
2023-05-25T18:30:05.795Z,9.13
2023-05-25T18:32:36.820Z,6.97
2023-05-25T18:35:08.478Z,9.32
2023-05-25T18:37:39.433Z,10.68
2023-05-25T18:40:14.580Z,12.45
2023-05-25T18:42:45.573Z,15.38
2023-05-25T18:45:16.787Z,8.75
2023-05-25T18:47:47.780Z,12.20
2023-05-25T18:50:19.340Z,10.80
2023-05-25T18:52:51.715Z,9.27
2023-05-25T18:55:25.316Z,12.43
2023-05-25T18:57:56.950Z,11.00
2023-05-25T19:00:27.935Z,10.68
2023-05-25T19:03:01.585Z,13.30
2023-05-25T19:05:33.861Z,11.82
2023-05-25T19:08:04.811Z,9.10
2023-05-25T19:10:38.330Z,10.88
2023-05-25T19:13:09.253Z,12.40
2023-05-25T19:15:40.191Z,9.93
2023-05-25T19:18:11.371Z,11.15
2023-05-25T19:20:42.417Z,9.85
2023-05-25T19:23:13.490Z,9.15
2023-05-25T19:25:47.301Z,10.13
2023-05-25T19:28:18.370Z,15.48
2023-05-25T19:30:49.281Z,12.93
2023-05-25T19:33:20.903Z,12.77
2023-05-25T19:35:51.898Z,15.57
2023-05-25T19:38:24.688Z,9.50
2023-05-25T19:41:00.243Z,10.48
2023-05-25T19:43:31.117Z,10.23
2023-05-25T19:46:02.018Z,8.63
2023-05-25T19:48:32.955Z,7.93
2023-05-25T19:51:04.098Z,11.38
2023-05-25T19:53:35.027Z,10.70
2023-05-25T19:56:08.880Z,13.18
2023-05-25T19:58:39.758Z,13.77
2023-05-25T20:01:10.785Z,12.02
2023-05-25T20:03:41.804Z,9.70
2023-05-25T20:06:12.936Z,8.68
2023-05-25T20:08:43.876Z,13.63
2023-05-25T20:11:17.391Z,8.20
2023-05-25T20:13:50.064Z,12.48
2023-05-25T20:16:21.448Z,14.38
2023-05-25T20:18:52.533Z,9.75
2023-05-25T20:21:23.473Z,8.43
2023-05-25T20:23:54.350Z,9.15
2023-05-25T20:26:28.070Z,9.35
2023-05-25T20:28:59.088Z,11.85
2023-05-25T20:31:30.038Z,14.02
2023-05-25T20:34:00.908Z,13.93
2023-05-25T20:36:33.241Z,14.88
2023-05-25T20:39:04.142Z,12.70
2023-05-25T20:41:37.611Z,12.52
2023-05-25T20:44:09.172Z,12.65
2023-05-25T20:46:40.144Z,15.15
2023-05-25T20:49:11.120Z,10.75
2023-05-25T20:51:42.432Z,9.82
2023-05-25T20:54:14.298Z,14.02
2023-05-25T20:56:48.507Z,13.05
2023-05-25T20:59:19.364Z,15.88
2023-05-25T21:01:50.484Z,12.98
2023-05-25T21:04:21.552Z,11.30
2023-05-25T21:06:52.959Z,15.55
2023-05-25T21:09:24.146Z,12.15
2023-05-25T21:11:57.706Z,12.48
2023-05-25T21:14:28.624Z,11.70
2023-05-25T21:17:00.031Z,10.23
2023-05-25T21:19:31.330Z,12.18
2023-05-25T21:22:02.270Z,15.05
2023-05-25T21:24:33.094Z,8.48
2023-05-25T21:27:06.975Z,14.27
2023-05-25T21:29:37.840Z,12.88
2023-05-25T21:32:09.089Z,12.90
2023-05-25T21:34:39.939Z,13.05
2023-05-25T21:37:10.797Z,12.27
2023-05-25T21:39:41.764Z,13.23
2023-05-25T21:42:15.740Z,8.93
2023-05-25T21:44:46.587Z,11.82
2023-05-25T21:47:17.424Z,11.18
2023-05-25T21:49:48.308Z,14.32
2023-05-25T21:52:26.588Z,15.95
2023-05-25T21:54:57.864Z,16.38
2023-05-25T21:57:31.353Z,13.00
2023-05-25T22:00:02.287Z,17.05
2023-05-25T22:02:43.435Z,13.73
2023-05-25T22:05:15.941Z,18.52
2023-05-25T22:07:47.130Z,16.95
2023-05-25T22:10:18.062Z,14.10
2023-05-25T22:12:51.603Z,12.38
2023-05-25T22:15:22.518Z,14.93
2023-05-25T22:17:53.394Z,12.07
2023-05-25T22:20:24.288Z,13.98
2023-05-25T22:22:55.498Z,14.48
2023-05-25T22:25:26.440Z,12.10
2023-05-25T22:27:59.992Z,11.63
2023-05-25T22:30:31.018Z,16.23
2023-05-25T22:33:01.998Z,13.43
2023-05-25T22:35:32.818Z,11.50
2023-05-25T22:38:03.821Z,15.63
2023-05-25T22:40:34.660Z,14.18
2023-05-25T22:43:13.016Z,14.05
2023-05-25T22:45:47.865Z,10.75
2023-05-25T22:48:19.669Z,16.58
2023-05-25T22:50:50.912Z,18.98
2023-05-25T22:53:21.991Z,15.60
2023-05-25T22:55:52.930Z,15.10
2023-05-25T22:58:26.408Z,14.45
2023-05-25T23:00:58.127Z,11.48
2023-05-25T23:03:29.040Z,14.25
2023-05-25T23:06:00.135Z,14.60
2023-05-25T23:08:31.543Z,15.75
2023-05-25T23:11:02.392Z,14.82
2023-05-25T23:13:36.067Z,15.82
2023-05-25T23:16:06.951Z,12.80
2023-05-25T23:18:37.749Z,15.40
2023-05-25T23:21:09.031Z,17.05
2023-05-25T23:23:39.923Z,12.43
2023-05-25T23:26:10.983Z,16.38
2023-05-25T23:28:44.501Z,13.82
2023-05-25T23:31:15.408Z,17.17
2023-05-25T23:33:46.280Z,13.82
2023-05-25T23:36:17.179Z,15.55
2023-05-25T23:38:49.533Z,12.85
2023-05-25T23:41:20.339Z,13.02
2023-05-25T23:43:53.798Z,16.90
2023-05-25T23:46:25.398Z,17.73
2023-05-25T23:48:56.377Z,15.57
2023-05-25T23:51:27.439Z,14.52
2023-05-25T23:53:58.382Z,19.63
2023-05-25T23:56:29.632Z,15.63
2023-05-25T23:59:03.164Z,18.38
